sensor_id;sensor_type;location;lat;lon;timestamp;P1;durP1;ratioP1;P2;durP2;ratioP2
12798;SDS011;19250;42.646;26.980;2022-08-01T00:02:19;7.53;;;6.93;;
12798;SDS011;19250;42.646;26.980;2022-08-01T00:04:46;7.47;;;6.80;;
12798;SDS011;19250;42.646;26.980;2022-08-01T00:07:14;7.78;;;7.07;;
12798;SDS011;19250;42.646;26.980;2022-08-01T00:09:41;7.57;;;6.95;;
12798;SDS011;19250;42.646;26.980;2022-08-01T00:12:10;6.80;;;6.20;;
12798;SDS011;19250;42.646;26.980;2022-08-01T00:14:37;6.40;;;5.90;;
12798;SDS011;19250;42.646;26.980;2022-08-01T00:17:04;6.00;;;5.40;;
12798;SDS011;19250;42.646;26.980;2022-08-01T00:19:31;5.95;;;5.35;;
12798;SDS011;19250;42.646;26.980;2022-08-01T00:21:59;5.80;;;5.30;;
12798;SDS011;19250;42.646;26.980;2022-08-01T00:24:26;5.70;;;5.20;;
12798;SDS011;19250;42.646;26.980;2022-08-01T00:26:53;5.77;;;5.27;;
12798;SDS011;19250;42.646;26.980;2022-08-01T00:29:22;5.93;;;5.35;;
12798;SDS011;19250;42.646;26.980;2022-08-01T00:31:49;5.88;;;5.47;;
12798;SDS011;19250;42.646;26.980;2022-08-01T00:34:17;6.10;;;5.70;;
12798;SDS011;19250;42.646;26.980;2022-08-01T00:36:44;6.07;;;5.47;;
12798;SDS011;19250;42.646;26.980;2022-08-01T00:39:12;5.90;;;5.18;;
12798;SDS011;19250;42.646;26.980;2022-08-01T00:41:39;5.72;;;4.70;;
12798;SDS011;19250;42.646;26.980;2022-08-01T00:44:06;4.80;;;4.50;;
12798;SDS011;19250;42.646;26.980;2022-08-01T00:46:35;5.53;;;5.05;;
12798;SDS011;19250;42.646;26.980;2022-08-01T00:49:02;5.05;;;4.63;;
12798;SDS011;19250;42.646;26.980;2022-08-01T00:51:30;5.07;;;4.63;;
12798;SDS011;19250;42.646;26.980;2022-08-01T00:53:58;5.93;;;4.70;;
12798;SDS011;19250;42.646;26.980;2022-08-01T00:56:26;5.33;;;4.67;;
12798;SDS011;19250;42.646;26.980;2022-08-01T00:58:54;4.82;;;4.43;;
12798;SDS011;19250;42.646;26.980;2022-08-01T01:01:22;4.82;;;4.43;;
12798;SDS011;19250;42.646;26.980;2022-08-01T01:03:52;4.60;;;4.20;;
12798;SDS011;19250;42.646;26.980;2022-08-01T01:06:25;4.70;;;4.30;;
12798;SDS011;19250;42.646;26.980;2022-08-01T01:09:11;4.47;;;4.07;;
12798;SDS011;19250;42.646;26.980;2022-08-01T01:12:02;4.97;;;4.35;;
12798;SDS011;19250;42.646;26.980;2022-08-01T01:14:51;4.70;;;4.30;;
12798;SDS011;19250;42.646;26.980;2022-08-01T01:17:25;4.35;;;4.05;;
12798;SDS011;19250;42.646;26.980;2022-08-01T01:19:59;4.38;;;4.00;;
12798;SDS011;19250;42.646;26.980;2022-08-01T01:22:45;4.72;;;4.32;;
12798;SDS011;19250;42.646;26.980;2022-08-01T01:25:22;4.50;;;4.10;;
12798;SDS011;19250;42.646;26.980;2022-08-01T01:28:06;4.32;;;4.00;;
12798;SDS011;19250;42.646;26.980;2022-08-01T01:30:41;5.07;;;3.97;;
12798;SDS011;19250;42.646;26.980;2022-08-01T01:33:11;7.18;;;4.15;;
12798;SDS011;19250;42.646;26.980;2022-08-01T01:35:42;4.30;;;3.90;;
12798;SDS011;19250;42.646;26.980;2022-08-01T01:38:14;6.38;;;4.00;;
12798;SDS011;19250;42.646;26.980;2022-08-01T01:40:45;5.90;;;3.80;;
12798;SDS011;19250;42.646;26.980;2022-08-01T01:43:13;4.53;;;4.10;;
12798;SDS011;19250;42.646;26.980;2022-08-01T01:45:43;4.33;;;3.93;;
12798;SDS011;19250;42.646;26.980;2022-08-01T01:48:12;4.65;;;3.60;;
12798;SDS011;19250;42.646;26.980;2022-08-01T01:50:41;4.30;;;3.90;;
12798;SDS011;19250;42.646;26.980;2022-08-01T01:53:09;4.10;;;3.80;;
12798;SDS011;19250;42.646;26.980;2022-08-01T01:55:40;5.67;;;3.73;;
12798;SDS011;19250;42.646;26.980;2022-08-01T01:58:09;3.72;;;3.50;;
12798;SDS011;19250;42.646;26.980;2022-08-01T02:00:39;6.30;;;3.90;;
12798;SDS011;19250;42.646;26.980;2022-08-01T02:03:11;4.17;;;3.40;;
12798;SDS011;19250;42.646;26.980;2022-08-01T02:05:40;4.40;;;3.75;;
12798;SDS011;19250;42.646;26.980;2022-08-01T02:08:08;3.90;;;3.60;;
12798;SDS011;19250;42.646;26.980;2022-08-01T02:10:38;3.90;;;3.50;;
12798;SDS011;19250;42.646;26.980;2022-08-01T02:13:07;3.83;;;3.53;;
12798;SDS011;19250;42.646;26.980;2022-08-01T02:15:36;5.20;;;3.30;;
12798;SDS011;19250;42.646;26.980;2022-08-01T02:18:04;3.58;;;3.28;;
12798;SDS011;19250;42.646;26.980;2022-08-01T02:20:38;3.78;;;3.15;;
12798;SDS011;19250;42.646;26.980;2022-08-01T02:23:06;3.20;;;2.90;;
12798;SDS011;19250;42.646;26.980;2022-08-01T02:25:38;3.95;;;3.28;;
12798;SDS011;19250;42.646;26.980;2022-08-01T02:28:09;3.70;;;3.00;;
12798;SDS011;19250;42.646;26.980;2022-08-01T02:30:41;4.15;;;3.00;;
12798;SDS011;19250;42.646;26.980;2022-08-01T02:33:15;3.53;;;3.15;;
12798;SDS011;19250;42.646;26.980;2022-08-01T02:35:47;4.25;;;2.90;;
12798;SDS011;19250;42.646;26.980;2022-08-01T02:38:18;4.10;;;2.70;;
12798;SDS011;19250;42.646;26.980;2022-08-01T02:40:48;3.05;;;2.75;;
12798;SDS011;19250;42.646;26.980;2022-08-01T02:43:21;4.25;;;2.67;;
12798;SDS011;19250;42.646;26.980;2022-08-01T02:45:51;3.28;;;2.50;;
12798;SDS011;19250;42.646;26.980;2022-08-01T02:48:20;3.08;;;2.67;;
12798;SDS011;19250;42.646;26.980;2022-08-01T02:50:54;4.13;;;2.72;;
12798;SDS011;19250;42.646;26.980;2022-08-01T02:53:24;3.22;;;2.92;;
12798;SDS011;19250;42.646;26.980;2022-08-01T02:55:53;5.22;;;2.50;;
12798;SDS011;19250;42.646;26.980;2022-08-01T02:58:22;4.18;;;2.60;;
12798;SDS011;19250;42.646;26.980;2022-08-01T03:00:49;2.63;;;2.42;;
12798;SDS011;19250;42.646;26.980;2022-08-01T03:03:19;3.10;;;2.78;;
12798;SDS011;19250;42.646;26.980;2022-08-01T03:05:47;3.47;;;2.45;;
12798;SDS011;19250;42.646;26.980;2022-08-01T03:08:17;3.57;;;2.40;;
12798;SDS011;19250;42.646;26.980;2022-08-01T03:10:46;4.30;;;2.65;;
12798;SDS011;19250;42.646;26.980;2022-08-01T03:13:15;5.07;;;2.92;;
12798;SDS011;19250;42.646;26.980;2022-08-01T03:15:44;4.22;;;2.80;;
12798;SDS011;19250;42.646;26.980;2022-08-01T03:18:14;5.73;;;2.77;;
12798;SDS011;19250;42.646;26.980;2022-08-01T03:20:43;3.20;;;2.30;;
12798;SDS011;19250;42.646;26.980;2022-08-01T03:23:12;3.20;;;2.20;;
12798;SDS011;19250;42.646;26.980;2022-08-01T03:25:43;3.88;;;2.30;;
12798;SDS011;19250;42.646;26.980;2022-08-01T03:28:12;2.87;;;2.40;;
12798;SDS011;19250;42.646;26.980;2022-08-01T03:30:40;3.17;;;2.40;;
12798;SDS011;19250;42.646;26.980;2022-08-01T03:33:09;2.90;;;2.33;;
12798;SDS011;19250;42.646;26.980;2022-08-01T03:35:38;2.42;;;2.22;;
12798;SDS011;19250;42.646;26.980;2022-08-01T03:38:12;2.73;;;2.30;;
12798;SDS011;19250;42.646;26.980;2022-08-01T03:40:45;4.15;;;2.28;;
12798;SDS011;19250;42.646;26.980;2022-08-01T03:43:16;4.28;;;2.20;;
12798;SDS011;19250;42.646;26.980;2022-08-01T03:45:49;4.22;;;2.42;;
12798;SDS011;19250;42.646;26.980;2022-08-01T03:48:20;3.90;;;2.38;;
12798;SDS011;19250;42.646;26.980;2022-08-01T03:50:51;4.90;;;2.33;;
12798;SDS011;19250;42.646;26.980;2022-08-01T03:53:20;4.38;;;2.20;;
12798;SDS011;19250;42.646;26.980;2022-08-01T03:55:51;3.08;;;2.38;;
12798;SDS011;19250;42.646;26.980;2022-08-01T03:58:20;4.07;;;2.35;;
12798;SDS011;19250;42.646;26.980;2022-08-01T04:00:48;5.77;;;2.63;;
12798;SDS011;19250;42.646;26.980;2022-08-01T04:03:16;3.10;;;2.40;;
12798;SDS011;19250;42.646;26.980;2022-08-01T04:05:43;2.53;;;2.08;;
12798;SDS011;19250;42.646;26.980;2022-08-01T04:08:11;3.15;;;2.50;;
12798;SDS011;19250;42.646;26.980;2022-08-01T04:10:38;2.83;;;2.35;;
12798;SDS011;19250;42.646;26.980;2022-08-01T04:13:07;3.95;;;2.50;;
12798;SDS011;19250;42.646;26.980;2022-08-01T04:15:34;5.07;;;2.42;;
12798;SDS011;19250;42.646;26.980;2022-08-01T04:18:02;3.63;;;2.30;;
12798;SDS011;19250;42.646;26.980;2022-08-01T04:20:29;2.72;;;2.10;;
12798;SDS011;19250;42.646;26.980;2022-08-01T04:22:56;3.30;;;2.10;;
12798;SDS011;19250;42.646;26.980;2022-08-01T04:25:25;3.57;;;2.10;;
12798;SDS011;19250;42.646;26.980;2022-08-01T04:27:56;2.35;;;2.15;;
12798;SDS011;19250;42.646;26.980;2022-08-01T04:30:31;2.20;;;2.00;;
12798;SDS011;19250;42.646;26.980;2022-08-01T04:33:00;3.33;;;1.98;;
12798;SDS011;19250;42.646;26.980;2022-08-01T04:35:33;3.63;;;2.15;;
12798;SDS011;19250;42.646;26.980;2022-08-01T04:38:03;3.53;;;2.00;;
12798;SDS011;19250;42.646;26.980;2022-08-01T04:40:31;2.75;;;2.03;;
12798;SDS011;19250;42.646;26.980;2022-08-01T04:43:01;3.40;;;2.55;;
12798;SDS011;19250;42.646;26.980;2022-08-01T04:45:29;2.63;;;2.08;;
12798;SDS011;19250;42.646;26.980;2022-08-01T04:47:57;3.00;;;2.13;;
12798;SDS011;19250;42.646;26.980;2022-08-01T04:50:26;2.08;;;1.98;;
12798;SDS011;19250;42.646;26.980;2022-08-01T04:52:53;2.20;;;2.00;;
12798;SDS011;19250;42.646;26.980;2022-08-01T04:55:21;3.22;;;2.15;;
12798;SDS011;19250;42.646;26.980;2022-08-01T04:57:48;2.80;;;2.10;;
12798;SDS011;19250;42.646;26.980;2022-08-01T05:00:15;3.67;;;2.30;;
12798;SDS011;19250;42.646;26.980;2022-08-01T05:02:44;2.65;;;1.88;;
12798;SDS011;19250;42.646;26.980;2022-08-01T05:05:12;5.35;;;2.40;;
12798;SDS011;19250;42.646;26.980;2022-08-01T05:07:40;3.20;;;2.10;;
12798;SDS011;19250;42.646;26.980;2022-08-01T05:10:07;4.45;;;2.03;;
12798;SDS011;19250;42.646;26.980;2022-08-01T05:12:35;2.95;;;2.63;;
12798;SDS011;19250;42.646;26.980;2022-08-01T05:15:02;2.17;;;1.90;;
12798;SDS011;19250;42.646;26.980;2022-08-01T05:17:31;4.60;;;2.22;;
12798;SDS011;19250;42.646;26.980;2022-08-01T05:20:00;3.30;;;2.00;;
12798;SDS011;19250;42.646;26.980;2022-08-01T05:22:27;2.83;;;2.50;;
12798;SDS011;19250;42.646;26.980;2022-08-01T05:24:54;3.63;;;2.00;;
12798;SDS011;19250;42.646;26.980;2022-08-01T05:27:22;4.32;;;2.60;;
12798;SDS011;19250;42.646;26.980;2022-08-01T05:29:49;4.10;;;2.20;;
12798;SDS011;19250;42.646;26.980;2022-08-01T05:32:16;4.18;;;2.00;;
12798;SDS011;19250;42.646;26.980;2022-08-01T05:34:43;2.30;;;2.00;;
12798;SDS011;19250;42.646;26.980;2022-08-01T05:37:12;3.20;;;1.95;;
12798;SDS011;19250;42.646;26.980;2022-08-01T05:39:39;2.30;;;2.10;;
12798;SDS011;19250;42.646;26.980;2022-08-01T05:42:07;3.15;;;2.00;;
12798;SDS011;19250;42.646;26.980;2022-08-01T05:44:34;2.43;;;1.90;;
12798;SDS011;19250;42.646;26.980;2022-08-01T05:47:01;2.80;;;2.08;;
12798;SDS011;19250;42.646;26.980;2022-08-01T05:49:29;3.10;;;2.20;;
12798;SDS011;19250;42.646;26.980;2022-08-01T05:51:56;2.63;;;2.42;;
12798;SDS011;19250;42.646;26.980;2022-08-01T05:54:25;2.40;;;2.20;;
12798;SDS011;19250;42.646;26.980;2022-08-01T05:56:52;4.20;;;2.35;;
12798;SDS011;19250;42.646;26.980;2022-08-01T05:59:20;4.20;;;1.80;;
12798;SDS011;19250;42.646;26.980;2022-08-01T06:01:47;3.70;;;2.53;;
12798;SDS011;19250;42.646;26.980;2022-08-01T06:04:14;4.22;;;3.33;;
12798;SDS011;19250;42.646;26.980;2022-08-01T06:06:41;2.55;;;2.13;;
12798;SDS011;19250;42.646;26.980;2022-08-01T06:09:09;3.22;;;1.90;;
12798;SDS011;19250;42.646;26.980;2022-08-01T06:11:37;3.78;;;2.05;;
12798;SDS011;19250;42.646;26.980;2022-08-01T06:14:05;3.67;;;2.03;;
12798;SDS011;19250;42.646;26.980;2022-08-01T06:16:32;2.60;;;1.88;;
12798;SDS011;19250;42.646;26.980;2022-08-01T06:18:59;3.47;;;2.13;;
12798;SDS011;19250;42.646;26.980;2022-08-01T06:21:27;2.50;;;2.00;;
12798;SDS011;19250;42.646;26.980;2022-08-01T06:23:54;3.35;;;2.20;;
12798;SDS011;19250;42.646;26.980;2022-08-01T06:26:21;2.22;;;2.00;;
12798;SDS011;19250;42.646;26.980;2022-08-01T06:28:50;2.75;;;2.00;;
12798;SDS011;19250;42.646;26.980;2022-08-01T06:31:17;4.63;;;2.25;;
12798;SDS011;19250;42.646;26.980;2022-08-01T06:33:44;2.50;;;2.05;;
12798;SDS011;19250;42.646;26.980;2022-08-01T06:36:12;4.22;;;2.13;;
12798;SDS011;19250;42.646;26.980;2022-08-01T06:38:39;3.40;;;2.10;;
12798;SDS011;19250;42.646;26.980;2022-08-01T06:41:06;4.50;;;2.20;;
12798;SDS011;19250;42.646;26.980;2022-08-01T06:43:33;4.03;;;2.40;;
12798;SDS011;19250;42.646;26.980;2022-08-01T06:46:02;3.55;;;2.20;;
12798;SDS011;19250;42.646;26.980;2022-08-01T06:48:30;3.35;;;2.10;;
12798;SDS011;19250;42.646;26.980;2022-08-01T06:50:57;5.80;;;2.10;;
12798;SDS011;19250;42.646;26.980;2022-08-01T06:53:34;4.40;;;2.30;;
12798;SDS011;19250;42.646;26.980;2022-08-01T06:56:02;4.10;;;2.40;;
12798;SDS011;19250;42.646;26.980;2022-08-01T06:58:31;3.35;;;2.35;;
12798;SDS011;19250;42.646;26.980;2022-08-01T07:00:59;6.80;;;2.45;;
12798;SDS011;19250;42.646;26.980;2022-08-01T07:03:28;4.32;;;2.00;;
12798;SDS011;19250;42.646;26.980;2022-08-01T07:05:55;3.78;;;2.40;;
12798;SDS011;19250;42.646;26.980;2022-08-01T07:08:22;2.60;;;2.13;;
12798;SDS011;19250;42.646;26.980;2022-08-01T07:10:49;2.38;;;2.17;;
12798;SDS011;19250;42.646;26.980;2022-08-01T07:13:17;2.40;;;2.10;;
12798;SDS011;19250;42.646;26.980;2022-08-01T07:15:46;5.10;;;2.90;;
12798;SDS011;19250;42.646;26.980;2022-08-01T07:18:13;2.87;;;2.20;;
12798;SDS011;19250;42.646;26.980;2022-08-01T07:20:42;4.03;;;2.10;;
12798;SDS011;19250;42.646;26.980;2022-08-01T07:23:11;4.25;;;2.08;;
12798;SDS011;19250;42.646;26.980;2022-08-01T07:25:38;2.37;;;2.10;;
12798;SDS011;19250;42.646;26.980;2022-08-01T07:28:06;2.95;;;2.13;;
12798;SDS011;19250;42.646;26.980;2022-08-01T07:30:33;2.95;;;2.20;;
12798;SDS011;19250;42.646;26.980;2022-08-01T07:33:01;4.00;;;2.30;;
12798;SDS011;19250;42.646;26.980;2022-08-01T07:35:28;4.45;;;2.10;;
12798;SDS011;19250;42.646;26.980;2022-08-01T07:37:57;3.50;;;2.30;;
12798;SDS011;19250;42.646;26.980;2022-08-01T07:40:24;3.40;;;1.90;;
12798;SDS011;19250;42.646;26.980;2022-08-01T07:42:52;3.20;;;2.00;;
12798;SDS011;19250;42.646;26.980;2022-08-01T07:45:19;3.13;;;2.10;;
12798;SDS011;19250;42.646;26.980;2022-08-01T07:47:46;1.92;;;1.75;;
12798;SDS011;19250;42.646;26.980;2022-08-01T07:50:14;3.90;;;1.90;;
12798;SDS011;19250;42.646;26.980;2022-08-01T07:52:42;2.90;;;1.90;;
12798;SDS011;19250;42.646;26.980;2022-08-01T07:55:11;3.60;;;1.90;;
12798;SDS011;19250;42.646;26.980;2022-08-01T07:57:38;3.42;;;1.85;;
12798;SDS011;19250;42.646;26.980;2022-08-01T08:00:06;3.35;;;2.05;;
12798;SDS011;19250;42.646;26.980;2022-08-01T08:02:34;3.10;;;2.00;;
12798;SDS011;19250;42.646;26.980;2022-08-01T08:05:02;4.70;;;2.00;;
12798;SDS011;19250;42.646;26.980;2022-08-01T08:07:30;4.60;;;2.38;;
12798;SDS011;19250;42.646;26.980;2022-08-01T08:09:57;4.03;;;2.00;;
12798;SDS011;19250;42.646;26.980;2022-08-01T08:12:26;3.97;;;2.25;;
12798;SDS011;19250;42.646;26.980;2022-08-01T08:14:53;3.20;;;1.90;;
12798;SDS011;19250;42.646;26.980;2022-08-01T08:17:21;2.20;;;2.00;;
12798;SDS011;19250;42.646;26.980;2022-08-01T08:19:48;2.50;;;2.00;;
12798;SDS011;19250;42.646;26.980;2022-08-01T08:22:15;2.08;;;1.60;;
12798;SDS011;19250;42.646;26.980;2022-08-01T08:24:43;4.03;;;1.70;;
12798;SDS011;19250;42.646;26.980;2022-08-01T08:27:10;3.45;;;1.85;;
12798;SDS011;19250;42.646;26.980;2022-08-01T08:29:39;4.05;;;1.80;;
12798;SDS011;19250;42.646;26.980;2022-08-01T08:32:07;2.03;;;1.70;;
12798;SDS011;19250;42.646;26.980;2022-08-01T08:34:34;3.83;;;1.80;;
12798;SDS011;19250;42.646;26.980;2022-08-01T08:37:02;2.13;;;1.80;;
12798;SDS011;19250;42.646;26.980;2022-08-01T08:39:29;3.03;;;1.92;;
12798;SDS011;19250;42.646;26.980;2022-08-01T08:41:59;2.00;;;1.80;;
12798;SDS011;19250;42.646;26.980;2022-08-01T08:44:28;2.80;;;1.88;;
12798;SDS011;19250;42.646;26.980;2022-08-01T08:46:57;2.88;;;1.90;;
12798;SDS011;19250;42.646;26.980;2022-08-01T08:49:27;2.70;;;2.10;;
12798;SDS011;19250;42.646;26.980;2022-08-01T08:51:57;1.83;;;1.70;;
12798;SDS011;19250;42.646;26.980;2022-08-01T08:54:26;3.97;;;1.70;;
12798;SDS011;19250;42.646;26.980;2022-08-01T08:56:55;2.90;;;1.77;;
12798;SDS011;19250;42.646;26.980;2022-08-01T08:59:22;2.92;;;2.00;;
12798;SDS011;19250;42.646;26.980;2022-08-01T09:01:50;3.42;;;1.70;;
12798;SDS011;19250;42.646;26.980;2022-08-01T09:04:19;3.22;;;1.88;;
12798;SDS011;19250;42.646;26.980;2022-08-01T09:06:47;4.32;;;2.00;;
12798;SDS011;19250;42.646;26.980;2022-08-01T09:09:15;3.60;;;1.90;;
12798;SDS011;19250;42.646;26.980;2022-08-01T09:11:42;5.22;;;1.88;;
12798;SDS011;19250;42.646;26.980;2022-08-01T09:14:10;4.40;;;2.10;;
12798;SDS011;19250;42.646;26.980;2022-08-01T09:16:40;3.08;;;1.90;;
12798;SDS011;19250;42.646;26.980;2022-08-01T09:19:10;3.78;;;1.65;;
12798;SDS011;19250;42.646;26.980;2022-08-01T09:21:40;3.58;;;1.65;;
12798;SDS011;19250;42.646;26.980;2022-08-01T09:24:23;4.63;;;1.80;;
12798;SDS011;19250;42.646;26.980;2022-08-01T09:26:51;3.65;;;1.75;;
12798;SDS011;19250;42.646;26.980;2022-08-01T09:29:20;3.45;;;2.00;;
12798;SDS011;19250;42.646;26.980;2022-08-01T09:31:49;2.30;;;2.10;;
12798;SDS011;19250;42.646;26.980;2022-08-01T09:34:23;2.97;;;1.77;;
12798;SDS011;19250;42.646;26.980;2022-08-01T09:36:53;3.20;;;1.70;;
12798;SDS011;19250;42.646;26.980;2022-08-01T09:39:22;1.80;;;1.70;;
12798;SDS011;19250;42.646;26.980;2022-08-01T09:41:52;4.93;;;1.83;;
12798;SDS011;19250;42.646;26.980;2022-08-01T09:44:24;1.80;;;1.70;;
12798;SDS011;19250;42.646;26.980;2022-08-01T09:47:04;3.20;;;1.80;;
12798;SDS011;19250;42.646;26.980;2022-08-01T09:49:32;3.70;;;2.00;;
12798;SDS011;19250;42.646;26.980;2022-08-01T09:52:11;3.08;;;1.70;;
12798;SDS011;19250;42.646;26.980;2022-08-01T09:54:39;1.90;;;1.70;;
12798;SDS011;19250;42.646;26.980;2022-08-01T09:57:08;2.03;;;1.60;;
12798;SDS011;19250;42.646;26.980;2022-08-01T09:59:39;2.90;;;1.60;;
12798;SDS011;19250;42.646;26.980;2022-08-01T10:02:10;2.53;;;1.50;;
12798;SDS011;19250;42.646;26.980;2022-08-01T10:04:47;2.80;;;1.50;;
12798;SDS011;19250;42.646;26.980;2022-08-01T10:07:16;2.85;;;1.58;;
12798;SDS011;19250;42.646;26.980;2022-08-01T10:09:45;2.00;;;1.43;;
12798;SDS011;19250;42.646;26.980;2022-08-01T10:12:14;2.30;;;1.50;;
12798;SDS011;19250;42.646;26.980;2022-08-01T10:14:43;2.35;;;1.40;;
12798;SDS011;19250;42.646;26.980;2022-08-01T10:17:12;1.77;;;1.50;;
12798;SDS011;19250;42.646;26.980;2022-08-01T10:19:41;2.97;;;1.60;;
12798;SDS011;19250;42.646;26.980;2022-08-01T10:22:10;2.78;;;1.50;;
12798;SDS011;19250;42.646;26.980;2022-08-01T10:24:43;2.40;;;1.43;;
12798;SDS011;19250;42.646;26.980;2022-08-01T10:27:13;1.55;;;1.35;;
12798;SDS011;19250;42.646;26.980;2022-08-01T10:29:46;1.73;;;1.40;;
12798;SDS011;19250;42.646;26.980;2022-08-01T10:32:16;2.73;;;1.63;;
12798;SDS011;19250;42.646;26.980;2022-08-01T10:34:44;1.30;;;1.20;;
12798;SDS011;19250;42.646;26.980;2022-08-01T10:37:12;1.50;;;1.40;;
12798;SDS011;19250;42.646;26.980;2022-08-01T10:39:41;1.85;;;1.45;;
12798;SDS011;19250;42.646;26.980;2022-08-01T10:42:10;1.90;;;1.40;;
12798;SDS011;19250;42.646;26.980;2022-08-01T10:44:38;3.85;;;1.50;;
12798;SDS011;19250;42.646;26.980;2022-08-01T10:47:08;2.10;;;1.50;;
12798;SDS011;19250;42.646;26.980;2022-08-01T10:49:39;2.23;;;1.37;;
12798;SDS011;19250;42.646;26.980;2022-08-01T10:52:15;2.60;;;1.23;;
12798;SDS011;19250;42.646;26.980;2022-08-01T10:54:44;1.50;;;1.40;;
12798;SDS011;19250;42.646;26.980;2022-08-01T10:57:12;2.40;;;1.63;;
12798;SDS011;19250;42.646;26.980;2022-08-01T10:59:49;2.30;;;1.30;;
12798;SDS011;19250;42.646;26.980;2022-08-01T11:02:27;1.60;;;1.50;;
12798;SDS011;19250;42.646;26.980;2022-08-01T11:04:57;1.60;;;1.50;;
12798;SDS011;19250;42.646;26.980;2022-08-01T11:10:19;2.80;;;1.55;;
12798;SDS011;19250;42.646;26.980;2022-08-01T11:12:51;1.77;;;1.67;;
12798;SDS011;19250;42.646;26.980;2022-08-01T11:15:22;1.40;;;1.30;;
12798;SDS011;19250;42.646;26.980;2022-08-01T11:17:55;2.10;;;1.38;;
12798;SDS011;19250;42.646;26.980;2022-08-01T11:20:23;1.70;;;1.40;;
12798;SDS011;19250;42.646;26.980;2022-08-01T11:26:07;2.63;;;1.55;;
12798;SDS011;19250;42.646;26.980;2022-08-01T11:28:36;1.80;;;1.70;;
12798;SDS011;19250;42.646;26.980;2022-08-01T11:33:54;2.20;;;1.73;;
12798;SDS011;19250;42.646;26.980;2022-08-01T11:36:22;2.47;;;1.45;;
12798;SDS011;19250;42.646;26.980;2022-08-01T11:38:50;2.28;;;1.42;;
12798;SDS011;19250;42.646;26.980;2022-08-01T11:41:40;2.00;;;1.52;;
12798;SDS011;19250;42.646;26.980;2022-08-01T11:44:09;2.40;;;1.70;;
12798;SDS011;19250;42.646;26.980;2022-08-01T11:46:45;2.10;;;1.60;;
12798;SDS011;19250;42.646;26.980;2022-08-01T11:49:35;2.78;;;1.52;;
12798;SDS011;19250;42.646;26.980;2022-08-01T11:52:15;2.45;;;1.60;;
12798;SDS011;19250;42.646;26.980;2022-08-01T11:54:45;5.75;;;1.75;;
12798;SDS011;19250;42.646;26.980;2022-08-01T11:57:17;3.17;;;1.63;;
12798;SDS011;19250;42.646;26.980;2022-08-01T11:59:46;1.80;;;1.45;;
12798;SDS011;19250;42.646;26.980;2022-08-01T12:02:18;3.65;;;1.58;;
12798;SDS011;19250;42.646;26.980;2022-08-01T12:04:48;3.20;;;1.83;;
12798;SDS011;19250;42.646;26.980;2022-08-01T12:07:20;2.63;;;1.50;;
12798;SDS011;19250;42.646;26.980;2022-08-01T12:09:51;2.22;;;1.83;;
12798;SDS011;19250;42.646;26.980;2022-08-01T12:12:25;4.40;;;1.60;;
12798;SDS011;19250;42.646;26.980;2022-08-01T12:14:54;2.20;;;1.52;;
12798;SDS011;19250;42.646;26.980;2022-08-01T12:17:29;2.80;;;1.60;;
12798;SDS011;19250;42.646;26.980;2022-08-01T12:19:58;2.53;;;1.65;;
12798;SDS011;19250;42.646;26.980;2022-08-01T12:22:26;4.05;;;1.98;;
12798;SDS011;19250;42.646;26.980;2022-08-01T12:24:55;3.60;;;1.50;;
12798;SDS011;19250;42.646;26.980;2022-08-01T12:27:33;2.33;;;1.60;;
12798;SDS011;19250;42.646;26.980;2022-08-01T12:30:01;2.22;;;1.50;;
12798;SDS011;19250;42.646;26.980;2022-08-01T12:32:31;2.30;;;1.55;;
12798;SDS011;19250;42.646;26.980;2022-08-01T12:35:01;2.10;;;1.60;;
12798;SDS011;19250;42.646;26.980;2022-08-01T12:37:30;1.90;;;1.60;;
12798;SDS011;19250;42.646;26.980;2022-08-01T12:39:58;3.08;;;1.52;;
12798;SDS011;19250;42.646;26.980;2022-08-01T12:42:26;2.22;;;1.50;;
12798;SDS011;19250;42.646;26.980;2022-08-01T12:44:55;1.55;;;1.45;;
12798;SDS011;19250;42.646;26.980;2022-08-01T12:47:22;2.42;;;1.70;;
12798;SDS011;19250;42.646;26.980;2022-08-01T12:49:50;2.95;;;1.63;;
12798;SDS011;19250;42.646;26.980;2022-08-01T12:52:18;1.80;;;1.70;;
12798;SDS011;19250;42.646;26.980;2022-08-01T12:55:00;1.92;;;1.70;;
12798;SDS011;19250;42.646;26.980;2022-08-01T12:57:29;2.13;;;1.50;;
12798;SDS011;19250;42.646;26.980;2022-08-01T13:00:14;2.75;;;1.30;;
12798;SDS011;19250;42.646;26.980;2022-08-01T13:02:46;2.28;;;1.60;;
12798;SDS011;19250;42.646;26.980;2022-08-01T13:05:15;2.28;;;1.40;;
12798;SDS011;19250;42.646;26.980;2022-08-01T13:07:44;1.60;;;1.50;;
12798;SDS011;19250;42.646;26.980;2022-08-01T13:10:15;1.95;;;1.60;;
12798;SDS011;19250;42.646;26.980;2022-08-01T13:12:52;1.90;;;1.75;;
12798;SDS011;19250;42.646;26.980;2022-08-01T13:15:23;2.40;;;1.70;;
12798;SDS011;19250;42.646;26.980;2022-08-01T13:17:53;2.70;;;1.57;;
12798;SDS011;19250;42.646;26.980;2022-08-01T13:20:21;2.13;;;1.60;;
12798;SDS011;19250;42.646;26.980;2022-08-01T13:22:50;2.30;;;1.50;;
12798;SDS011;19250;42.646;26.980;2022-08-01T13:25:17;2.80;;;1.80;;
12798;SDS011;19250;42.646;26.980;2022-08-01T13:27:45;3.65;;;1.70;;
12798;SDS011;19250;42.646;26.980;2022-08-01T13:30:13;1.70;;;1.60;;
12798;SDS011;19250;42.646;26.980;2022-08-01T13:32:44;1.60;;;1.50;;
12798;SDS011;19250;42.646;26.980;2022-08-01T13:35:24;3.10;;;1.80;;
12798;SDS011;19250;42.646;26.980;2022-08-01T13:37:51;2.60;;;1.90;;
12798;SDS011;19250;42.646;26.980;2022-08-01T13:40:23;2.33;;;2.03;;
12798;SDS011;19250;42.646;26.980;2022-08-01T13:42:51;3.88;;;1.92;;
12798;SDS011;19250;42.646;26.980;2022-08-01T13:45:18;4.43;;;4.00;;
12798;SDS011;19250;42.646;26.980;2022-08-01T13:47:47;2.83;;;2.50;;
12798;SDS011;19250;42.646;26.980;2022-08-01T13:50:15;3.47;;;1.95;;
12798;SDS011;19250;42.646;26.980;2022-08-01T13:52:42;2.30;;;2.10;;
12798;SDS011;19250;42.646;26.980;2022-08-01T13:55:09;8.02;;;4.85;;
12798;SDS011;19250;42.646;26.980;2022-08-01T13:57:37;6.07;;;4.15;;
12798;SDS011;19250;42.646;26.980;2022-08-01T14:00:05;4.07;;;2.10;;
12798;SDS011;19250;42.646;26.980;2022-08-01T14:02:34;2.47;;;2.28;;
12798;SDS011;19250;42.646;26.980;2022-08-01T14:05:03;2.50;;;2.30;;
12798;SDS011;19250;42.646;26.980;2022-08-01T14:07:31;2.22;;;2.03;;
12798;SDS011;19250;42.646;26.980;2022-08-01T14:09:58;4.20;;;1.98;;
12798;SDS011;19250;42.646;26.980;2022-08-01T14:12:26;3.22;;;2.05;;
12798;SDS011;19250;42.646;26.980;2022-08-01T14:14:53;2.20;;;2.00;;
12798;SDS011;19250;42.646;26.980;2022-08-01T14:17:21;3.00;;;2.10;;
12798;SDS011;19250;42.646;26.980;2022-08-01T14:19:48;2.47;;;2.22;;
12798;SDS011;19250;42.646;26.980;2022-08-01T14:22:17;2.10;;;1.90;;
12798;SDS011;19250;42.646;26.980;2022-08-01T14:24:45;3.45;;;2.67;;
12798;SDS011;19250;42.646;26.980;2022-08-01T14:27:12;1.90;;;1.80;;
12798;SDS011;19250;42.646;26.980;2022-08-01T14:29:40;2.85;;;2.17;;
12798;SDS011;19250;42.646;26.980;2022-08-01T14:32:07;3.13;;;1.85;;
12798;SDS011;19250;42.646;26.980;2022-08-01T14:34:34;3.20;;;1.83;;
12798;SDS011;19250;42.646;26.980;2022-08-01T14:37:01;3.47;;;2.70;;
12798;SDS011;19250;42.646;26.980;2022-08-01T14:39:30;2.85;;;2.13;;
12798;SDS011;19250;42.646;26.980;2022-08-01T14:41:57;2.95;;;2.15;;
12798;SDS011;19250;42.646;26.980;2022-08-01T14:44:25;2.33;;;1.80;;
12798;SDS011;19250;42.646;26.980;2022-08-01T14:46:52;3.67;;;3.33;;
12798;SDS011;19250;42.646;26.980;2022-08-01T14:49:19;2.78;;;2.17;;
12798;SDS011;19250;42.646;26.980;2022-08-01T14:51:46;2.80;;;1.92;;
12798;SDS011;19250;42.646;26.980;2022-08-01T14:54:13;2.05;;;1.95;;
12798;SDS011;19250;42.646;26.980;2022-08-01T14:56:42;2.40;;;2.00;;